Time;durP1;ratioP1;P1;durP2;ratioP2;P2;SDS_P1;SDS_P2;PMS_P1;PMS_P2;Temp;Humidity;BMP_temperature;BMP_pressure;BME280_temperature;BME280_humidity;BME280_pressure;Samples;Min_cycle;Max_cycle;Signal;HPM_P1;HPM_P2
2023/07/26 00:02:23;;;;;;;;;;;;;;;5.29;100.00;99315.56;4944697;29;20750;-85
2023/07/26 00:04:49;;;;;;;;;;;;;;;5.38;100.00;99314.44;4945611;29;19919;-90
2023/07/26 00:07:14;;;;;;;;;;;;;;;5.32;100.00;99319.88;4930819;29;19925;-88
2023/07/26 05:13:37;;;;;;;;;;;;;;;7.90;100.00;99421.06;5209047;23;19969;-92
2023/07/26 05:16:02;;;;;;;;;;;;;;;7.92;100.00;99423.63;4947657;29;19954;-83
2023/07/26 05:18:27;;;;;;;;;;;;;;;7.90;100.00;99422.84;4946980;29;20005;-88
2023/07/26 05:20:53;;;;;;;;;;;;;;;7.90;100.00;99426.31;4947569;29;20332;-87
2023/07/26 05:23:18;;;;;;;;;;;;;;;7.85;100.00;99427.41;4947424;29;19922;-86
2023/07/26 05:25:46;;;;;;;;;;;;;;;7.90;100.00;99436.88;4947057;29;19919;-86
2023/07/26 05:28:11;;;;;;;;;;;;;;;7.92;100.00;99434.19;4945684;29;19919;-87
2023/07/26 05:30:40;;;;;;;;;;;;;;;7.93;100.00;99442.03;4946913;29;20021;-85
2023/07/26 05:33:06;;;;;;;;;;;;;;;7.91;100.00;99450.91;4947303;29;20513;-85
2023/07/26 05:35:31;;;;;;;;;;;;;;;7.96;100.00;99446.31;4947284;29;20005;-84
2023/07/26 05:37:56;;;;;;;;;;;;;;;7.99;100.00;99449.72;4947229;29;20036;-84
2023/07/26 05:40:21;;;;;;;;;;;;;;;8.02;100.00;99450.53;4929607;29;19926;-86
2023/07/26 05:42:47;;;;;;;;;;;;;;;7.99;100.00;99446.22;4945409;29;19925;-85
2023/07/26 05:45:12;;;;;;;;;;;;;;;8.00;100.00;99447.94;4946727;29;20025;-86
2023/07/26 05:47:38;;;;;;;;;;;;;;;8.03;100.00;99453.09;4946999;29;19923;-87
2023/07/26 05:50:04;;;;;;;;;;;;;;;8.08;100.00;99450.28;4946397;29;19919;-87
2023/07/26 05:52:29;;;;;;;;;;;;;;;8.00;100.00;99448.78;4946381;29;19919;-85
2023/07/26 05:54:55;;;;;;;;;;;;;;;7.96;100.00;99452.47;4946934;29;19922;-87
2023/07/26 05:57:20;;;;;;;;;;;;;;;7.92;100.00;99455.28;4945447;29;19923;-86
2023/07/26 05:59:45;;;;;;;;;;;;;;;7.95;100.00;99460.47;4946227;29;19923;-85
2023/07/26 06:02:11;;;;;;;;;;;;;;;7.96;100.00;99455.13;4946260;29;19927;-86
2023/07/26 06:04:36;;;;;;;;;;;;;;;7.93;100.00;99455.22;4929548;29;19925;-85
2023/07/26 06:07:01;;;;;;;;;;;;;;;7.98;100.00;99457.69;4945549;29;20009;-92
2023/07/26 06:09:27;;;;;;;;;;;;;;;7.95;100.00;99460.47;4946829;29;20258;-87
2023/07/26 06:11:52;;;;;;;;;;;;;;;7.97;100.00;99464.75;4945318;29;20316;-86
2023/07/26 06:14:18;;;;;;;;;;;;;;;7.95;100.00;99465.72;4945840;28;19965;-87
2023/07/26 06:16:45;;;;;;;;;;;;;;;7.93;100.00;99478.97;4946161;29;19922;-86
2023/07/26 06:19:14;;;;;;;;;;;;;;;7.96;100.00;99472.72;4946330;29;19930;-83
2023/07/26 06:21:39;;;;;;;;;;;;;;;7.94;100.00;99458.72;4946063;29;19923;-85
2023/07/26 06:24:04;;;;;;;;;;;;;;;7.93;100.00;99465.78;4928811;29;19970;-86
2023/07/26 06:26:30;;;;;;;;;;;;;;;7.95;100.00;99469.22;4945882;29;19928;-86
2023/07/26 06:28:55;;;;;;;;;;;;;;;7.91;100.00;99475.50;4944817;29;19919;-86
2023/07/26 06:31:20;;;;;;;;;;;;;;;7.96;100.00;99483.25;4929021;29;19927;-85
2023/07/26 06:33:45;;;;;;;;;;;;;;;7.94;100.00;99487.75;4945922;29;19958;-86
2023/07/26 06:36:11;;;;;;;;;;;;;;;7.96;100.00;99475.34;4945503;29;19918;-88
2023/07/26 06:38:36;;;;;;;;;;;;;;;7.96;100.00;99475.34;4946003;29;19925;-86
2023/07/26 06:41:01;;;;;;;;;;;;;;;7.96;100.00;99478.88;4946056;29;19918;-86
2023/07/26 06:43:27;;;;;;;;;;;;;;;7.98;100.00;99476.19;4944439;29;20267;-86
2023/07/26 06:45:52;;;;;;;;;;;;;;;7.98;100.00;99478.81;4945452;29;19922;-84
2023/07/26 06:48:18;;;;;;;;;;;;;;;8.02;100.00;99483.03;4952676;29;19969;-84
2023/07/26 06:50:43;;;;;;;;;;;;;;;7.98;100.00;99478.81;4945429;29;19942;-85
2023/07/26 06:53:08;;;;;;;;;;;;;;;8.02;100.00;99480.41;4945752;29;19929;-84
2023/07/26 06:55:34;;;;;;;;;;;;;;;8.00;100.00;99479.59;4945724;29;19974;-84
2023/07/26 06:58:00;;;;;;;;;;;;;;;7.95;100.00;99484.19;4943759;29;19926;-84
2023/07/26 07:58:26;;;;;;;;;;;;;;;8.03;100.00;99494.47;5577524;23;19973;-81
2023/07/26 08:00:55;;;;;;;;;;;;;;;8.03;100.00;99489.19;4944683;29;20385;-84
2023/07/26 08:03:20;;;;;;;;;;;;;;;8.07;100.00;99490.78;4944583;29;20289;-84
2023/07/26 08:05:46;;;;;;;;;;;;;;;8.06;100.00;99499.59;4950118;29;19922;-83
2023/07/26 08:08:11;;;;;;;;;;;;;;;8.12;100.00;99496.75;4944557;29;19922;-83
2023/07/26 08:10:37;;;;;;;;;;;;;;;8.07;100.00;99501.34;4925863;29;19930;-86
2023/07/26 08:13:02;;;;;;;;;;;;;;;8.08;100.00;99495.16;4925913;29;19919;-82
2023/07/26 08:15:32;;;;;;;;;;;;;;;8.06;100.00;99504.88;4926642;29;19929;-82
2023/07/26 08:17:57;;;;;;;;;;;;;;;8.13;100.00;99501.13;4944730;29;20382;-82
2023/07/26 08:20:22;;;;;;;;;;;;;;;8.13;100.00;99512.53;4944440;29;19958;-81
2023/07/26 08:22:48;;;;;;;;;;;;;;;8.13;100.00;99512.53;4944580;29;20367;-82
2023/07/26 08:25:13;;;;;;;;;;;;;;;8.20;100.00;99502.63;4944262;29;20301;-82
2023/07/26 08:27:38;;;;;;;;;;;;;;;8.20;100.00;99507.91;4942601;29;20278;-82
2023/07/26 08:30:04;;;;;;;;;;;;;;;8.23;100.00;99513.03;4944205;29;19922;-83
2023/07/26 08:32:29;;;;;;;;;;;;;;;8.25;100.00;99510.34;4944582;29;20017;-83
2023/07/26 08:34:54;;;;;;;;;;;;;;;8.19;100.00;99512.31;4943975;29;19920;-83
2023/07/26 08:37:20;;;;;;;;;;;;;;;8.24;100.00;99513.91;4943885;29;19934;-82
2023/07/26 08:39:45;;;;;;;;;;;;;;;8.26;100.00;99520.00;4944110;29;19924;-83
2023/07/26 08:42:10;;;;;;;;;;;;;;;8.27;100.00;99519.09;4945266;28;19969;-82
2023/07/26 08:44:38;;;;;;;;;;;;;;;8.28;100.00;99512.88;4947934;29;20355;-82
2023/07/26 08:47:04;;;;;;;;;;;;;;;8.26;100.00;99512.06;4947835;29;19922;-82
2023/07/26 08:49:30;;;;;;;;;;;;;;;8.22;100.00;99515.72;4948149;29;19974;-82
2023/07/26 08:51:55;;;;;;;;;;;;;;;8.23;100.00;99513.03;4947597;29;20006;-82
2023/07/26 08:54:21;;;;;;;;;;;;;;;8.24;100.00;99513.91;4947426;29;20009;-83
2023/07/26 08:56:48;;;;;;;;;;;;;;;8.25;100.00;99516.50;4947607;29;20006;-82
2023/07/26 08:59:13;;;;;;;;;;;;;;;8.25;100.00;99520.91;4953771;28;20436;-82
2023/07/26 09:01:39;;;;;;;;;;;;;;;8.24;100.00;99520.06;4966498;28;20001;-83
2023/07/26 09:04:05;;;;;;;;;;;;;;;8.22;100.00;99524.53;4949247;28;20024;-82
2023/07/26 09:06:37;;;;;;;;;;;;;;;8.25;100.00;99523.53;4965830;28;20021;-83
2023/07/26 09:09:02;;;;;;;;;;;;;;;8.25;100.00;99521.78;4966486;28;19922;-85
2023/07/26 09:11:28;;;;;;;;;;;;;;;8.26;100.00;99517.34;4966470;28;19918;-83
2023/07/26 09:13:58;;;;;;;;;;;;;;;8.29;100.00;99523.38;4948252;28;19918;-83
2023/07/26 09:16:27;;;;;;;;;;;;;;;8.28;100.00;99523.44;4966382;28;19930;-82
2023/07/26 09:18:56;;;;;;;;;;;;;;;8.29;100.00;99527.81;4966126;28;20329;-83
2023/07/26 09:21:28;;;;;;;;;;;;;;;8.32;100.00;99525.91;4966315;28;19924;-83
2023/07/26 09:23:54;;;;;;;;;;;;;;;8.31;100.00;99524.19;4966016;28;19921;-82
2023/07/26 09:26:31;;;;;;;;;;;;;;;8.34;100.00;99525.84;4966332;28;20345;-81
2023/07/26 09:28:57;;;;;;;;;;;;;;;8.35;100.00;99527.56;4965002;28;19930;-83
2023/07/26 09:31:29;;;;;;;;;;;;;;;8.31;100.00;99531.22;4948754;28;20267;-82
2023/07/26 09:33:54;;;;;;;;;;;;;;;8.42;100.00;99534.31;4966388;28;19929;-83
2023/07/26 09:36:19;;;;;;;;;;;;;;;8.39;100.00;99533.59;4948633;28;19922;-83
2023/07/26 09:38:44;;;;;;;;;;;;;;;8.36;100.00;99518.75;4948470;28;20293;-82
2023/07/26 09:41:25;;;;;;;;;;;;;;;8.40;100.00;99527.41;4949287;28;19969;-82
2023/07/26 09:43:51;;;;;;;;;;;;;;;8.40;100.00;99528.25;4948767;28;20365;-82
2023/07/26 09:46:17;;;;;;;;;;;;;;;8.21;100.00;99537.78;4948474;28;19974;-83
2023/07/26 09:48:55;;;;;;;;;;;;;;;7.18;100.00;99537.84;4948801;28;19965;-83
2023/07/26 09:51:21;;;;;;;;;;;;;;;6.72;100.00;99534.03;4945972;28;19918;-82
2023/07/26 09:53:47;;;;;;;;;;;;;;;6.51;100.00;99532.91;4947999;28;19925;-83
2023/07/26 09:56:12;;;;;;;;;;;;;;;6.35;100.00;99536.00;4943817;28;20336;-82
2023/07/26 09:58:40;;;;;;;;;;;;;;;6.29;100.00;99527.44;4961846;28;19930;-83
2023/07/26 10:01:06;;;;;;;;;;;;;;;6.14;100.00;99531.34;4948686;28;19944;-84
2023/07/26 10:03:33;;;;;;;;;;;;;;;6.00;100.00;99540.50;4967650;28;20421;-83
2023/07/26 10:05:59;;;;;;;;;;;;;;;5.97;100.00;99532.72;4948463;28;19929;-86
2023/07/26 10:08:25;;;;;;;;;;;;;;;5.90;100.00;99536.38;4965522;28;19918;-83
2023/07/26 10:10:51;;;;;;;;;;;;;;;5.90;100.00;99536.38;4965640;28;19922;-83
2023/07/26 10:13:18;;;;;;;;;;;;;;;5.88;100.00;99540.81;4964183;28;19926;-81
2023/07/26 10:15:47;;;;;;;;;;;;;;;5.83;100.00;99535.69;4966130;28;19918;-83
2023/07/26 10:18:14;;;;;;;;;;;;;;;5.81;100.00;99536.63;4965686;28;19918;-83
2023/07/26 10:20:41;;;;;;;;;;;;;;;5.78;100.00;99544.59;4966000;28;20005;-83
2023/07/26 10:23:09;;;;;;;;;;;;;;;5.76;100.00;99549.03;4964899;28;19926;-87
2023/07/26 10:25:35;;;;;;;;;;;;;;;5.74;100.00;99537.69;4949030;28;20330;-88
2023/07/26 10:28:02;;;;;;;;;;;;;;;5.71;100.00;99533.41;4946849;28;20479;-84
2023/07/26 10:30:27;;;;;;;;;;;;;;;5.68;100.00;99528.22;4965040;28;19918;-84
2023/07/26 10:32:53;;;;;;;;;;;;;;;5.66;100.00;99535.28;4955754;28;19919;-84
2023/07/26 10:35:26;;;;;;;;;;;;;;;5.59;100.00;99539.84;4964806;28;19919;-84
2023/07/26 10:37:51;;;;;;;;;;;;;;;5.59;100.00;99539.84;4965223;28;20010;-84
2023/07/26 10:40:29;;;;;;;;;;;;;;;5.59;100.00;99533.72;4964619;28;20009;-84
2023/07/26 10:42:54;;;;;;;;;;;;;;;5.59;100.00;99539.84;4964116;28;19981;-84
2023/07/26 10:45:46;;;;;;;;;;;;;;;5.53;100.00;99532.09;4947415;28;20381;-82
2023/07/26 10:48:26;;;;;;;;;;;;;;;5.51;100.00;99533.06;4947449;28;19918;-84
2023/07/26 10:50:54;;;;;;;;;;;;;;;5.41;100.00;99529.81;4964552;28;20396;-84
2023/07/26 10:53:32;;;;;;;;;;;;;;;5.45;100.00;99531.44;4964551;28;19923;-83
2023/07/26 10:56:16;;;;;;;;;;;;;;;5.45;100.00;99531.44;4964330;28;19925;-84
2023/07/26 10:58:54;;;;;;;;;;;;;;;5.37;100.00;99526.38;4960170;28;20297;-84
2023/07/26 11:01:49;;;;;;;;;;;;;;;5.35;100.00;99520.31;4945850;29;19926;-84
2023/07/26 11:04:15;;;;;;;;;;;;;;;5.32;100.00;99523.00;4917331;29;19923;-83
2023/07/26 11:07:00;;;;;;;;;;;;;;;5.29;100.00;99530.97;4945067;29;19930;-84
2023/07/26 11:09:26;;;;;;;;;;;;;;;5.31;100.00;99523.91;4945535;29;19919;-83
2023/07/26 11:12:01;;;;;;;;;;;;;;;5.26;100.00;99529.31;4945143;29;20502;-82
2023/07/26 11:14:30;;;;;;;;;;;;;;;5.26;100.00;99528.44;4943848;29;19925;-84
2023/07/26 11:16:55;;;;;;;;;;;;;;;5.27;100.00;99528.38;4927705;29;19923;-83
2023/07/26 11:19:21;;;;;;;;;;;;;;;5.23;100.00;99508.38;4945791;29;19978;-82
2023/07/26 11:21:46;;;;;;;;;;;;;;;5.20;100.00;99511.06;4945377;29;19918;-87
2023/07/26 11:24:12;;;;;;;;;;;;;;;5.18;100.00;99510.22;4927308;29;20692;-85
2023/07/26 11:26:42;;;;;;;;;;;;;;;5.24;100.00;99523.22;4945028;29;19929;-82
2023/07/26 11:29:07;;;;;;;;;;;;;;;5.21;100.00;99515.41;4926482;29;20384;-84
2023/07/26 11:31:33;;;;;;;;;;;;;;;5.23;100.00;99512.75;4945120;29;19928;-82
2023/07/26 11:33:58;;;;;;;;;;;;;;;5.24;100.00;99515.31;4945750;29;20291;-83
2023/07/26 11:36:24;;;;;;;;;;;;;;;5.22;100.00;99511.88;4944851;29;20430;-83
2023/07/26 11:38:49;;;;;;;;;;;;;;;5.20;100.00;99511.06;4945119;29;20274;-82
2023/07/26 11:41:18;;;;;;;;;;;;;;;5.22;100.00;99514.50;4945169;29;19915;-82
2023/07/26 11:43:43;;;;;;;;;;;;;;;5.19;100.00;99511.97;4943222;29;19923;-83
2023/07/26 11:46:09;;;;;;;;;;;;;;;5.18;100.00;99509.38;4944835;29;19946;-82
2023/07/26 11:48:34;;;;;;;;;;;;;;;5.14;100.00;99511.22;4944448;29;19926;-83
2023/07/26 11:51:03;;;;;;;;;;;;;;;5.11;100.00;99513.91;4944703;29;19977;-83
2023/07/26 11:53:29;;;;;;;;;;;;;;;5.08;100.00;99506.97;4944552;29;19970;-83
2023/07/26 11:55:54;;;;;;;;;;;;;;;5.09;100.00;99505.22;4944350;29;19923;-82
2023/07/26 11:58:21;;;;;;;;;;;;;;;5.09;100.00;99515.72;4943431;28;19973;-82
2023/07/26 12:00:48;;;;;;;;;;;;;;;5.05;100.00;99508.81;4927505;29;19929;-83
2023/07/26 12:03:13;;;;;;;;;;;;;;;5.01;100.00;99505.41;4944034;29;19927;-83
2023/07/26 12:05:46;;;;;;;;;;;;;;;5.07;100.00;99501.75;4927196;29;20283;-83
2023/07/26 12:08:12;;;;;;;;;;;;;;;5.09;100.00;99507.84;4927343;29;19982;-83
2023/07/26 12:10:38;;;;;;;;;;;;;;;5.09;100.00;99502.59;4944497;29;20445;-84
2023/07/26 12:13:07;;;;;;;;;;;;;;;5.14;100.00;99498.09;4942799;29;20298;-82
2023/07/26 12:15:46;;;;;;;;;;;;;;;5.12;100.00;99501.63;4944642;29;19919;-82
2023/07/26 12:18:11;;;;;;;;;;;;;;;5.05;100.00;99501.78;4944940;29;20366;-83
2023/07/26 12:20:53;;;;;;;;;;;;;;;5.05;100.00;99500.94;4934503;29;19966;-83
2023/07/26 12:23:18;;;;;;;;;;;;;;;5.07;100.00;99499.13;4944353;29;19933;-83
2023/07/26 12:25:43;;;;;;;;;;;;;;;5.06;100.00;99497.41;4943994;29;19926;-83
2023/07/26 12:28:09;;;;;;;;;;;;;;;5.27;100.00;99502.13;4942823;29;19929;-83
2023/07/26 12:30:34;;;;;;;;;;;;;;;5.87;100.00;99502.28;4944645;29;19965;-83
2023/07/26 12:33:12;;;;;;;;;;;;;;;6.16;100.00;99508.53;4944417;29;19970;-83
2023/07/26 12:35:39;;;;;;;;;;;;;;;6.35;100.00;99507.06;4944281;29;19922;-83
2023/07/26 12:38:11;;;;;;;;;;;;;;;6.54;100.00;99494.19;4943804;29;19923;-83
2023/07/26 12:40:36;;;;;;;;;;;;;;;6.66;100.00;99500.84;4944071;29;19925;-83
2023/07/26 12:43:18;;;;;;;;;;;;;;;6.75;100.00;99509.34;4942784;29;20293;-83
2023/07/26 12:45:43;;;;;;;;;;;;;;;6.82;100.00;99511.75;4944453;29;19919;-83
2023/07/26 12:48:08;;;;;;;;;;;;;;;6.90;100.00;99506.25;4943881;29;19922;-83
2023/07/26 12:50:33;;;;;;;;;;;;;;;7.00;100.00;99506.81;4944262;29;20053;-84
2023/07/26 12:52:59;;;;;;;;;;;;;;;7.06;100.00;99502.19;4944287;29;19918;-83
2023/07/26 12:55:24;;;;;;;;;;;;;;;7.10;100.00;99510.88;4943886;29;20014;-83
2023/07/26 12:57:49;;;;;;;;;;;;;;;7.12;100.00;99511.69;4942404;29;19927;-83
2023/07/26 13:00:15;;;;;;;;;;;;;;;7.16;100.00;99502.75;4944140;28;19982;-83
2023/07/26 13:02:40;;;;;;;;;;;;;;;7.22;100.00;99501.69;4926612;29;19926;-83
2023/07/26 13:05:05;;;;;;;;;;;;;;;7.29;100.00;99513.72;4942628;29;19926;-83
2023/07/26 13:07:30;;;;;;;;;;;;;;;7.26;100.00;99509.44;4943292;29;19918;-82
2023/07/26 13:09:56;;;;;;;;;;;;;;;7.30;100.00;99504.06;4944120;29;19918;-82
2023/07/26 13:12:21;;;;;;;;;;;;;;;7.31;100.00;99501.38;4942642;29;20337;-82
2023/07/26 13:14:47;;;;;;;;;;;;;;;7.36;100.00;99501.22;4943677;29;20331;-83
2023/07/26 13:17:12;;;;;;;;;;;;;;;7.39;100.00;99501.13;4943414;29;19922;-83
2023/07/26 13:19:37;;;;;;;;;;;;;;;7.39;100.00;99495.84;4944004;29;20291;-82
2023/07/26 13:22:03;;;;;;;;;;;;;;;7.45;100.00;99501.78;4943796;29;19994;-83
2023/07/26 13:24:28;;;;;;;;;;;;;;;7.49;100.00;99496.41;4926180;29;20014;-83
2023/07/26 13:26:53;;;;;;;;;;;;;;;7.50;100.00;99498.97;4950423;28;19962;-83
2023/07/26 13:29:18;;;;;;;;;;;;;;;7.52;100.00;99497.16;4945469;29;19915;-83
2023/07/26 13:31:44;;;;;;;;;;;;;;;7.57;100.00;99508.38;4946891;29;19922;-82
2023/07/26 13:34:09;;;;;;;;;;;;;;;7.57;100.00;99496.97;4947107;29;19982;-82
2023/07/26 13:36:34;;;;;;;;;;;;;;;7.59;100.00;99500.41;4947103;29;19919;-83
2023/07/26 13:38:59;;;;;;;;;;;;;;;7.62;100.00;99497.69;4946719;29;20371;-83
2023/07/26 13:41:24;;;;;;;;;;;;;;;7.59;100.00;99492.50;4946654;29;19927;-83
2023/07/26 13:43:50;;;;;;;;;;;;;;;7.63;100.00;99486.22;4945809;29;19965;-92
2023/07/26 13:46:16;;;;;;;;;;;;;;;7.69;100.00;99493.03;4946884;29;19918;-83
2023/07/26 13:48:41;;;;;;;;;;;;;;;7.78;100.00;99490.94;4945972;29;19918;-83
2023/07/26 13:51:06;;;;;;;;;;;;;;;7.77;100.00;99496.25;4947779;29;19926;-83
2023/07/26 13:53:32;;;;;;;;;;;;;;;7.81;100.00;99490.81;4947173;29;19923;-83
2023/07/26 13:55:57;;;;;;;;;;;;;;;7.79;100.00;99490.03;4946497;29;19922;-83
2023/07/26 13:58:22;;;;;;;;;;;;;;;7.80;100.00;99483.84;4929542;28;20321;-84
2023/07/26 14:00:47;;;;;;;;;;;;;;;7.85;100.00;99493.34;4937734;29;19922;-84
2023/07/26 14:03:14;;;;;;;;;;;;;;;7.87;100.00;99495.03;4954568;29;19926;-83
2023/07/26 14:05:40;;;;;;;;;;;;;;;7.91;100.00;99495.78;4956073;29;19995;-82
2023/07/26 14:08:05;;;;;;;;;;;;;;;7.94;100.00;99495.66;4932200;29;19923;-82
2023/07/26 14:10:30;;;;;;;;;;;;;;;7.92;100.00;99493.06;4954151;29;19922;-83
2023/07/26 14:12:55;;;;;;;;;;;;;;;7.95;100.00;99492.13;4954183;29;20362;-82
2023/07/26 14:15:21;;;;;;;;;;;;;;;8.01;100.00;99486.63;4954885;29;19929;-85
2023/07/26 14:17:46;;;;;;;;;;;;;;;8.04;100.00;99502.34;4954435;29;19930;-82
2023/07/26 14:20:12;;;;;;;;;;;;;;;8.05;100.00;99488.19;4954751;29;20009;-81
2023/07/26 14:22:37;;;;;;;;;;;;;;;8.05;100.00;99488.19;4954858;29;19934;-82
2023/07/26 14:25:02;;;;;;;;;;;;;;;8.02;100.00;99472.47;4955654;29;20009;-83
2023/07/26 14:27:27;;;;;;;;;;;;;;;8.03;100.00;99471.56;4954341;29;19923;-81
2023/07/26 14:29:53;;;;;;;;;;;;;;;8.06;100.00;99479.38;4953159;29;19923;-82
2023/07/26 14:32:18;;;;;;;;;;;;;;;8.03;100.00;99466.31;4951910;29;19926;-83
2023/07/26 14:34:44;;;;;;;;;;;;;;;8.07;100.00;99464.41;4948274;29;20017;-82
2023/07/26 14:37:09;;;;;;;;;;;;;;;8.05;100.00;99468.88;4953321;29;19922;-82
2023/07/26 14:39:35;;;;;;;;;;;;;;;8.19;100.00;99463.94;4934556;29;19981;-82
2023/07/26 14:42:01;;;;;;;;;;;;;;;8.27;100.00;99469.78;4954454;29;19931;-82
2023/07/26 14:44:26;;;;;;;;;;;;;;;8.29;100.00;99469.72;4952916;29;19980;-83
2023/07/26 14:46:51;;;;;;;;;;;;;;;8.29;100.00;99465.28;4954440;29;19926;-82
2023/07/26 14:49:16;;;;;;;;;;;;;;;8.33;100.00;99471.34;4950605;29;19934;-82
2023/07/26 14:51:42;;;;;;;;;;;;;;;8.30;100.00;99471.47;4951055;29;20440;-81
2023/07/26 14:54:07;;;;;;;;;;;;;;;8.32;100.00;99464.31;4954393;29;19926;-81
2023/07/26 14:56:32;;;;;;;;;;;;;;;8.31;100.00;99458.19;4950835;29;19930;-85
2023/07/26 14:58:58;;;;;;;;;;;;;;;8.41;100.00;99461.34;4950994;28;20301;-82
2023/07/26 15:01:23;;;;;;;;;;;;;;;8.35;100.00;99461.56;4948524;29;19926;-81
2023/07/26 15:03:49;;;;;;;;;;;;;;;8.37;100.00;99462.38;4948632;29;20400;-81
2023/07/26 15:06:14;;;;;;;;;;;;;;;8.36;100.00;99461.50;4930201;29;19927;-82
2023/07/26 15:08:39;;;;;;;;;;;;;;;8.41;100.00;99452.53;4946011;29;19922;-81
2023/07/26 15:11:04;;;;;;;;;;;;;;;8.36;100.00;99453.59;4932135;29;20005;-83
2023/07/26 15:13:30;;;;;;;;;;;;;;;8.34;100.00;99454.56;4933518;29;19926;-82
2023/07/26 15:15:55;;;;;;;;;;;;;;;8.41;100.00;99445.50;4949283;29;19965;-82
2023/07/26 15:18:20;;;;;;;;;;;;;;;8.39;100.00;99444.66;4934255;29;20344;-82
2023/07/26 15:20:45;;;;;;;;;;;;;;;8.41;100.00;99455.19;4949386;29;19986;-82
2023/07/26 15:23:11;;;;;;;;;;;;;;;8.43;100.00;99443.69;4930105;29;20725;-84
2023/07/26 15:25:36;;;;;;;;;;;;;;;8.39;100.00;99449.94;4951380;29;19929;-83
2023/07/26 15:28:03;;;;;;;;;;;;;;;8.42;100.00;99449.84;4948213;29;19922;-83
2023/07/26 15:30:28;;;;;;;;;;;;;;;8.48;100.00;99460.19;4935133;29;20333;-83
2023/07/26 15:32:53;;;;;;;;;;;;;;;8.19;100.00;99454.22;4950316;29;19929;-83
2023/07/26 15:35:18;;;;;;;;;;;;;;;7.14;100.00;99461.56;4931753;29;19928;-84
2023/07/26 15:37:44;;;;;;;;;;;;;;;6.68;100.00;99454.25;4952785;29;20029;-84
2023/07/26 15:40:09;;;;;;;;;;;;;;;6.52;100.00;99453.03;4954519;29;19918;-83
2023/07/26 15:42:35;;;;;;;;;;;;;;;6.36;100.00;99450.00;4951881;29;19969;-83
2023/07/26 15:45:00;;;;;;;;;;;;;;;6.29;100.00;99453.75;4952035;29;19937;-84
2023/07/26 15:47:25;;;;;;;;;;;;;;;6.21;100.00;99461.00;4952339;29;20370;-83
2023/07/26 15:49:50;;;;;;;;;;;;;;;6.16;100.00;99461.16;4953937;28;19931;-84
2023/07/26 15:52:17;;;;;;;;;;;;;;;6.07;100.00;99459.66;4951476;29;19922;-82
2023/07/26 15:54:42;;;;;;;;;;;;;;;6.06;100.00;99451.81;4951187;29;19932;-84
2023/07/26 15:57:07;;;;;;;;;;;;;;;6.02;100.00;99450.19;4952592;29;20348;-83
2023/07/26 15:59:33;;;;;;;;;;;;;;;5.93;100.00;99449.50;4952983;28;19930;-84
2023/07/26 16:01:58;;;;;;;;;;;;;;;5.92;100.00;99453.06;4953147;29;20371;-82
2023/07/26 16:04:23;;;;;;;;;;;;;;;5.86;100.00;99442.72;4954252;29;19918;-83
2023/07/26 16:06:48;;;;;;;;;;;;;;;5.83;100.00;99442.78;4953218;29;19923;-84
2023/07/26 16:09:14;;;;;;;;;;;;;;;5.73;100.00;99441.34;4932117;29;19972;-83
2023/07/26 16:11:39;;;;;;;;;;;;;;;5.71;100.00;99444.03;4950159;29;20025;-83
2023/07/26 16:14:04;;;;;;;;;;;;;;;5.72;100.00;99439.63;4935280;29;20009;-83
2023/07/26 16:16:30;;;;;;;;;;;;;;;5.70;100.00;99430.91;4930333;29;22071;-83
2023/07/26 16:18:55;;;;;;;;;;;;;;;5.66;100.00;99426.63;4934620;29;19919;-82
2023/07/26 16:21:20;;;;;;;;;;;;;;;5.63;100.00;99436.34;4953427;29;19929;-83
2023/07/26 16:23:45;;;;;;;;;;;;;;;5.62;100.00;99431.13;4927671;29;19930;-84
2023/07/26 16:26:11;;;;;;;;;;;;;;;5.59;100.00;99429.44;4951235;29;19926;-83
2023/07/26 16:28:36;;;;;;;;;;;;;;;5.59;100.00;99429.44;4945699;29;19995;-83
2023/07/26 16:31:02;;;;;;;;;;;;;;;5.56;100.00;99423.41;4953710;29;20388;-83
2023/07/26 16:33:27;;;;;;;;;;;;;;;5.50;100.00;99424.44;4950495;29;20362;-83
2023/07/26 16:35:54;;;;;;;;;;;;;;;5.59;100.00;99412.81;4934490;29;19958;-84
2023/07/26 16:38:19;;;;;;;;;;;;;;;5.52;100.00;99417.38;4951597;29;19964;-83
2023/07/26 16:40:45;;;;;;;;;;;;;;;5.52;100.00;99412.13;4949370;29;19957;-83
2023/07/26 16:43:10;;;;;;;;;;;;;;;5.50;100.00;99403.41;4930997;29;20096;-85
2023/07/26 16:45:35;;;;;;;;;;;;;;;5.51;100.00;99410.41;4932361;29;19965;-84
2023/07/26 16:48:00;;;;;;;;;;;;;;;5.49;100.00;99419.22;4931528;29;19941;-84
2023/07/26 16:50:26;;;;;;;;;;;;;;;5.45;100.00;99413.19;4947130;29;19934;-82
2023/07/26 16:52:51;;;;;;;;;;;;;;;5.46;100.00;99417.56;4947632;29;19937;-83
2023/07/26 16:55:16;;;;;;;;;;;;;;;5.51;100.00;99420.91;4950916;29;20466;-82
2023/07/26 16:57:42;;;;;;;;;;;;;;;5.51;100.00;99423.53;4929106;29;19926;-82
2023/07/26 17:00:07;;;;;;;;;;;;;;;5.50;100.00;99427.06;4942066;28;19976;-83
2023/07/26 17:02:34;;;;;;;;;;;;;;;5.44;100.00;99424.59;4952785;28;19974;-85
2023/07/26 17:04:59;;;;;;;;;;;;;;;5.44;100.00;99420.22;4972208;28;19926;-83
2023/07/26 17:07:24;;;;;;;;;;;;;;;5.40;100.00;99423.81;4956090;28;19922;-84
2023/07/26 17:09:49;;;;;;;;;;;;;;;5.44;100.00;99424.59;4969255;28;19941;-83
2023/07/26 17:12:14;;;;;;;;;;;;;;;5.45;100.00;99426.34;4973060;28;20370;-82
2023/07/26 17:14:40;;;;;;;;;;;;;;;5.41;100.00;99430.81;4970969;28;20301;-86
2023/07/26 17:17:05;;;;;;;;;;;;;;;5.41;100.00;99430.81;4972510;28;19981;-83
2023/07/26 17:19:33;;;;;;;;;;;;;;;5.39;100.00;99431.75;4975805;28;20312;-86
2023/07/26 17:21:58;;;;;;;;;;;;;;;5.36;100.00;99431.84;4967330;28;20286;-84
2023/07/26 17:24:23;;;;;;;;;;;;;;;5.39;100.00;99423.88;4954079;28;19929;-86
2023/07/26 17:26:48;;;;;;;;;;;;;;;5.40;100.00;99422.97;4954900;28;20393;-84
2023/07/26 17:29:14;;;;;;;;;;;;;;;5.39;100.00;99426.50;4971233;28;19969;-83
2023/07/26 17:31:39;;;;;;;;;;;;;;;5.38;100.00;99427.41;4969449;28;19933;-83
2023/07/26 17:34:05;;;;;;;;;;;;;;;5.38;100.00;99424.78;4950973;28;19929;-84
2023/07/26 17:36:31;;;;;;;;;;;;;;;5.36;100.00;99432.72;4971139;28;19941;-84
2023/07/26 17:38:56;;;;;;;;;;;;;;;5.36;100.00;99431.84;4954720;28;19918;-81
2023/07/26 17:41:21;;;;;;;;;;;;;;;5.33;100.00;99438.06;4968371;28;19926;-84
2023/07/26 17:43:50;;;;;;;;;;;;;;;5.33;100.00;99431.91;4955707;28;20396;-84
2023/07/26 17:46:16;;;;;;;;;;;;;;;5.31;100.00;99436.34;4956720;28;19922;-83
2023/07/26 17:48:42;;;;;;;;;;;;;;;5.32;100.00;99425.81;4971638;28;19930;-84
2023/07/26 17:51:08;;;;;;;;;;;;;;;5.33;100.00;99429.28;4958672;28;19922;-88
2023/07/26 17:53:35;;;;;;;;;;;;;;;5.33;100.00;99430.16;4954482;28;19930;-83
2023/07/26 17:56:00;;;;;;;;;;;;;;;5.26;100.00;99432.09;4969472;28;19982;-84
2023/07/26 17:58:26;;;;;;;;;;;;;;;5.25;100.00;99429.53;4972363;28;19926;-83
2023/07/26 18:00:51;;;;;;;;;;;;;;;5.24;100.00;99426.00;4972591;28;19926;-84
2023/07/26 18:03:17;;;;;;;;;;;;;;;5.25;100.00;99433.00;4972754;28;19962;-89
2023/07/26 18:05:42;;;;;;;;;;;;;;;5.29;100.00;99425.88;4956147;28;20697;-83
2023/07/26 18:08:07;;;;;;;;;;;;;;;5.30;100.00;99432.88;4973320;28;20433;-84
2023/07/26 18:10:33;;;;;;;;;;;;;;;5.26;100.00;99431.22;4972050;28;19922;-84
2023/07/26 18:12:59;;;;;;;;;;;;;;;5.26;100.00;99434.72;4970990;28;19997;-84
2023/07/26 18:15:24;;;;;;;;;;;;;;;5.23;100.00;99441.81;4972962;28;20492;-84
2023/07/26 18:17:50;;;;;;;;;;;;;;;5.28;100.00;99440.81;4971008;28;19922;-82
2023/07/26 18:20:15;;;;;;;;;;;;;;;5.30;100.00;99445.13;4955052;28;19980;-84
2023/07/26 18:22:42;;;;;;;;;;;;;;;5.26;100.00;99450.50;4972378;28;19918;-85
2023/07/26 18:25:08;;;;;;;;;;;;;;;5.25;100.00;99448.75;4974853;28;19926;-85
2023/07/26 18:27:33;;;;;;;;;;;;;;;5.27;100.00;99441.69;4969795;28;19930;-83
2023/07/26 18:29:58;;;;;;;;;;;;;;;5.27;100.00;99441.69;4969151;28;19966;-89
2023/07/26 18:32:23;;;;;;;;;;;;;;;5.28;100.00;99446.06;4956218;28;19926;-85
2023/07/26 18:34:49;;;;;;;;;;;;;;;5.26;100.00;99446.97;4957518;28;19918;-82
2023/07/26 18:37:14;;;;;;;;;;;;;;;5.26;100.00;99454.88;4956527;28;20010;-83
2023/07/26 18:39:39;;;;;;;;;;;;;;;5.26;100.00;99457.50;4974302;28;19925;-82
2023/07/26 18:42:04;;;;;;;;;;;;;;;5.30;100.00;99460.91;4956712;28;19951;-82
2023/07/26 18:44:30;;;;;;;;;;;;;;;5.28;100.00;99456.56;4971524;28;19926;-82
2023/07/26 18:46:56;;;;;;;;;;;;;;;5.25;100.00;99456.63;4971178;28;19976;-83